To NAV CANADA Home Page Login to a new session Search on AWWS site Feedback and Comments Disclaimer Vers la page française équivalente Tips FAQ What's new on the site To the Forecasts and Observations / NOTAM section To "File a Flight Plan" website Publications and other links Update of the User's profile FIC Telephone Numbers My Weather Data Folder Route Weather Data Regional Weather Data Local Weather Data To the Forecasts and Observations / NOTAM section
Request Generated 05/25/2017 at 01:14:28 UTC . Weather information available at that time is displayed.

METAR/TAF

GRANDE PRAIRIE/AB    

METAR CYQU 250100Z 31014KT 25SM VCSH BKN075TCU 14/06 A2973 RMK TCU7
SLP081 DENSITY ALT 2800FT=
METAR CYQU 250000Z 01013G20KT 310V030 15SM SCT060TCU BKN080 17/05
A2972 RMK TCU3AC2 SLP078 DENSITY ALT 3100FT=
SPECI CYQU 242313Z 36018G24KT 15SM -SHRA BKN059TCU BKN080 16/05 A2971
RMK TCU6AC1 SLP075 DENSITY ALT 3000FT=
METAR CYQU 242300Z CCA 34013G20KT 25SM VCSH BKN070TCU BKN110 18/06
A2970 RMK TCU5AC2 SLP070 DENSITY ALT 3300FT=
METAR CYQU 242300Z 34013G20KT 25SM BKN070TCU BKN110 18/06 A2970 RMK
TCU5AC2 SLP070 DENSITY ALT 3300FT=

TAF CYQU 250038Z 2501/2513 32015G25KT P6SM SCT050 BKN200 TEMPO
2501/2503 P6SM -SHRA BKN050 BKN200
RMK NXT FCST BY 250700Z=
Your time UTC time
Weather data provided by Environment Canada and NAV CANADA